createdAt,value
2022-11-15T00:02:06.653Z,100866.28
2022-11-15T00:04:53.242Z,100863.56
2022-11-15T00:07:55.245Z,100868.19
2022-11-15T00:10:42.794Z,100861.69
2022-11-15T00:13:30.647Z,100856.56
2022-11-15T00:16:19.040Z,100860.50
2022-11-15T00:19:05.674Z,100858.28
2022-11-15T00:21:52.120Z,100857.47
2022-11-15T00:24:38.579Z,100858.63
2022-11-15T00:27:25.381Z,100852.16
2022-11-15T00:30:13.724Z,100860.34
2022-11-15T00:33:05.347Z,100857.28
2022-11-15T00:35:51.784Z,100852.66
2022-11-15T00:38:39.869Z,100841.91
2022-11-15T00:41:26.574Z,100848.88
2022-11-15T00:44:13.338Z,100836.84
2022-11-15T00:47:02.827Z,100831.34
2022-11-15T00:49:58.145Z,100832.53
2022-11-15T00:52:51.598Z,100827.41
2022-11-15T00:55:47.744Z,100827.22
2022-11-15T00:58:34.536Z,100814.41
2022-11-15T01:01:21.396Z,100825.13
2022-11-15T01:04:08.173Z,100815.09
2022-11-15T01:06:56.492Z,100808.06
2022-11-15T01:09:43.188Z,100798.88
2022-11-15T01:12:29.814Z,100802.47
2022-11-15T01:15:16.905Z,100804.34
2022-11-15T01:18:03.509Z,100800.44
2022-11-15T01:20:50.005Z,100793.50
2022-11-15T01:23:39.309Z,100795.66
2022-11-15T01:26:27.074Z,100794.81
2022-11-15T01:29:13.848Z,100792.91
2022-11-15T01:32:00.306Z,100796.91
2022-11-15T01:34:48.145Z,100786.59
2022-11-15T01:37:35.100Z,100791.22
2022-11-15T01:40:24.357Z,100785.03
2022-11-15T01:43:30.785Z,100784.00
2022-11-15T01:46:36.346Z,100782.31
2022-11-15T01:49:25.480Z,100780.00
2022-11-15T01:52:15.849Z,100779.47
2022-11-15T01:55:09.873Z,100773.41
2022-11-15T01:58:04.082Z,100769.63
2022-11-15T02:00:51.962Z,100772.72
2022-11-15T02:03:44.522Z,100772.88
2022-11-15T02:06:31.395Z,100765.59
2022-11-15T02:09:19.163Z,100762.13
2022-11-15T02:12:07.448Z,100768.50
2022-11-15T02:14:57.066Z,100761.66
2022-11-15T02:18:01.184Z,100764.16
2022-11-15T02:21:12.307Z,100756.78
2022-11-15T02:24:19.408Z,100759.13
2022-11-15T02:27:56.299Z,100758.28
2022-11-15T02:31:17.636Z,100749.16
2022-11-15T02:34:28.538Z,100742.97
2022-11-15T02:37:30.557Z,100749.13
2022-11-15T02:40:29.757Z,100745.28
2022-11-15T02:43:45.258Z,100751.41
2022-11-15T02:46:57.055Z,100747.44
2022-11-15T02:49:47.605Z,100739.19
2022-11-15T02:52:33.963Z,100734.47
2022-11-15T02:55:35.173Z,100736.28
2022-11-15T02:58:41.084Z,100741.13
2022-11-15T03:01:41.064Z,100736.88
2022-11-15T03:04:40.787Z,100750.13
2022-11-15T03:07:31.889Z,100734.25
2022-11-15T03:10:26.397Z,100730.34
2022-11-15T03:13:23.807Z,100723.72
2022-11-15T03:16:22.636Z,100728.31
2022-11-15T03:19:31.094Z,100726.66
2022-11-15T03:22:28.540Z,100726.13
2022-11-15T03:25:31.520Z,100719.44
2022-11-15T03:28:23.756Z,100723.38
2022-11-15T03:31:26.679Z,100715.22
2022-11-15T03:34:23.017Z,100707.25
2022-11-15T03:37:12.304Z,100709.97
2022-11-15T03:39:59.156Z,100708.34
2022-11-15T03:42:55.920Z,100706.88
2022-11-15T03:45:48.835Z,100703.50
2022-11-15T03:48:40.537Z,100706.16
2022-11-15T03:51:28.739Z,100708.38
2022-11-15T03:54:16.170Z,100701.28
2022-11-15T03:57:02.739Z,100695.38
2022-11-15T03:59:49.344Z,100689.06
2022-11-15T04:02:36.350Z,100694.56
2022-11-15T04:05:25.961Z,100691.38
2022-11-15T04:08:21.316Z,100686.50
2022-11-15T04:11:26.258Z,100687.91
2022-11-15T04:14:17.871Z,100681.28
2022-11-15T04:17:26.180Z,100684.00
2022-11-15T04:20:34.426Z,100682.13
2022-11-15T04:23:41.792Z,100687.75
2022-11-15T04:26:28.451Z,100683.16
2022-11-15T04:29:32.755Z,100689.59
2022-11-15T04:32:19.600Z,100695.34
2022-11-15T04:35:06.963Z,100692.47
2022-11-15T04:37:54.107Z,100696.06
2022-11-15T04:40:42.017Z,100687.88
2022-11-15T04:43:28.886Z,100687.38
2022-11-15T04:46:16.434Z,100683.69
2022-11-15T04:49:03.473Z,100688.25
2022-11-15T04:51:49.857Z,100683.34
2022-11-15T04:54:36.271Z,100683.84
2022-11-15T04:57:24.805Z,100680.13
2022-11-15T05:00:20.838Z,100675.00
2022-11-15T05:03:27.113Z,100680.78
2022-11-15T05:06:40.592Z,100678.78
2022-11-15T05:09:27.328Z,100679.97
2022-11-15T05:12:14.000Z,100678.75
2022-11-15T05:15:02.307Z,100674.88
2022-11-15T05:17:48.936Z,100680.66
2022-11-15T05:20:35.348Z,100668.72
2022-11-15T05:23:22.074Z,100666.84
2022-11-15T05:26:09.780Z,100673.16
2022-11-15T05:28:56.560Z,100667.03
2022-11-15T05:31:44.890Z,100667.19
2022-11-15T05:34:31.671Z,100670.94
2022-11-15T05:37:18.212Z,100676.22
2022-11-15T05:40:05.733Z,100672.31
2022-11-15T05:42:52.486Z,100671.09
2022-11-15T05:45:39.608Z,100678.13
2022-11-15T05:48:28.194Z,100677.94
2022-11-15T05:51:19.011Z,100671.97
2022-11-15T05:54:16.994Z,100672.16
2022-11-15T05:57:18.474Z,100681.34
2022-11-15T06:00:07.182Z,100672.66
2022-11-15T06:02:53.767Z,100675.38
2022-11-15T06:05:41.955Z,100685.06
2022-11-15T06:08:29.194Z,100690.00
2022-11-15T06:11:16.253Z,100685.75
2022-11-15T06:14:03.040Z,100685.25
2022-11-15T06:16:49.760Z,100685.41
2022-11-15T06:19:36.066Z,100693.06
2022-11-15T06:22:23.889Z,100698.69
2022-11-15T06:25:10.612Z,100695.28
2022-11-15T06:27:59.005Z,100699.19
2022-11-15T06:30:50.450Z,100704.84
2022-11-15T06:33:40.639Z,100697.72
2022-11-15T06:36:26.883Z,100706.19
2022-11-15T06:39:14.959Z,100714.41
2022-11-15T06:42:01.790Z,100710.16
2022-11-15T06:44:54.687Z,100711.84
2022-11-15T06:47:49.965Z,100712.88
2022-11-15T06:50:36.368Z,100712.16
2022-11-15T06:53:23.330Z,100711.50
2022-11-15T06:56:11.111Z,100710.66
2022-11-15T06:58:57.905Z,100712.34
2022-11-15T07:01:44.624Z,100722.19
2022-11-15T07:04:31.104Z,100717.13
2022-11-15T07:07:17.652Z,100713.06
2022-11-15T07:10:05.110Z,100714.06
2022-11-15T07:12:53.612Z,100721.72
2022-11-15T07:15:40.428Z,100717.63
2022-11-15T07:18:28.406Z,100721.38
2022-11-15T07:21:15.126Z,100726.31
2022-11-15T07:24:01.554Z,100731.44
2022-11-15T07:26:48.318Z,100731.44
2022-11-15T07:29:36.834Z,100731.28
2022-11-15T07:32:23.779Z,100732.25
2022-11-15T07:35:26.429Z,100732.78
2022-11-15T07:38:13.708Z,100738.06
2022-11-15T07:41:02.075Z,100743.00
2022-11-15T07:43:48.648Z,100736.88
2022-11-15T07:46:36.493Z,100735.00
2022-11-15T07:49:23.415Z,100744.22
2022-11-15T07:52:10.374Z,100740.13
2022-11-15T07:54:56.786Z,100735.69
2022-11-15T07:57:43.908Z,100732.28
2022-11-15T08:00:30.415Z,100728.69
2022-11-15T08:03:19.508Z,100735.84
2022-11-15T08:06:07.190Z,100736.03
2022-11-15T08:08:53.780Z,100740.97
2022-11-15T08:11:40.456Z,100736.53
2022-11-15T08:14:27.344Z,100739.94
2022-11-15T08:17:14.035Z,100745.38
2022-11-15T08:20:02.730Z,100737.38
2022-11-15T08:22:49.411Z,100738.56
2022-11-15T08:25:47.581Z,100747.75
2022-11-15T08:28:34.931Z,100743.16
2022-11-15T08:31:22.072Z,100739.75
2022-11-15T08:34:09.554Z,100742.31
2022-11-15T08:36:57.339Z,100737.00
2022-11-15T08:39:44.715Z,100738.03
2022-11-15T08:42:31.421Z,100730.03
2022-11-15T08:45:17.870Z,100727.31
2022-11-15T08:48:05.283Z,100734.44
2022-11-15T08:50:56.455Z,100724.03
2022-11-15T08:53:45.572Z,100721.81
2022-11-15T08:56:32.564Z,100728.94
2022-11-15T08:59:18.893Z,100720.09
2022-11-15T09:02:05.985Z,100709.25
2022-11-15T09:04:52.837Z,100708.22
2022-11-15T09:07:39.340Z,100717.88
2022-11-15T09:10:27.867Z,100714.13
2022-11-15T09:13:23.410Z,100708.13
2022-11-15T09:16:13.359Z,100697.94
2022-11-15T09:19:00.291Z,100702.66
2022-11-15T09:21:47.193Z,100698.72
2022-11-15T09:24:33.891Z,100706.38
2022-11-15T09:27:21.938Z,100712.84
2022-11-15T09:30:09.697Z,100713.50
2022-11-15T09:32:56.705Z,100708.75
2022-11-15T09:35:43.342Z,100707.25
2022-11-15T09:38:30.432Z,100708.97
2022-11-15T09:41:45.989Z,100706.25
2022-11-15T09:44:46.824Z,100700.78
2022-11-15T09:47:48.259Z,100703.09
2022-11-15T09:50:44.749Z,100698.34
2022-11-15T09:53:16.083Z,100700.72
2022-11-15T09:55:53.563Z,100710.03
2022-11-15T09:58:29.327Z,100705.75
2022-11-15T10:01:02.424Z,100695.53
2022-11-15T10:03:44.458Z,100696.53
2022-11-15T10:06:30.721Z,100697.69
2022-11-15T10:09:04.243Z,100691.09
2022-11-15T10:11:38.992Z,100685.59
2022-11-15T10:14:14.708Z,100687.25
2022-11-15T10:17:17.418Z,100677.84
2022-11-15T10:19:54.979Z,100677.19
2022-11-15T10:22:42.227Z,100668.63
2022-11-15T10:25:22.536Z,100672.72
2022-11-15T10:27:56.791Z,100666.31
2022-11-15T10:30:33.717Z,100665.06
2022-11-15T10:33:16.551Z,100663.16
2022-11-15T10:35:44.629Z,100665.94
2022-11-15T10:38:13.897Z,100653.31
2022-11-15T10:40:47.035Z,100657.50
2022-11-15T10:43:19.808Z,100653.59
2022-11-15T10:45:50.957Z,100648.91
2022-11-15T10:48:29.347Z,100641.03
2022-11-15T10:50:58.298Z,100636.22
2022-11-15T10:53:33.640Z,100640.44
2022-11-15T10:56:19.667Z,100633.75
2022-11-15T10:58:55.575Z,100633.72
2022-11-15T11:01:25.953Z,100634.38
2022-11-15T11:04:03.163Z,100633.72
2022-11-15T11:06:32.435Z,100629.84
2022-11-15T11:09:02.392Z,100632.47
2022-11-15T11:11:49.294Z,100634.81
2022-11-15T11:14:26.919Z,100634.63
2022-11-15T11:16:59.917Z,100629.34
2022-11-15T11:19:46.968Z,100630.88
2022-11-15T11:22:24.354Z,100624.91
2022-11-15T11:25:15.787Z,100621.66
2022-11-15T11:27:55.768Z,100619.50
2022-11-15T11:30:32.313Z,100618.53
2022-11-15T11:33:12.938Z,100614.16
2022-11-15T11:35:52.214Z,100604.53
2022-11-15T11:38:36.974Z,100607.66
2022-11-15T11:41:20.487Z,100614.25
2022-11-15T11:44:06.719Z,100602.13
2022-11-15T11:46:58.421Z,100600.91
2022-11-15T11:49:34.622Z,100607.22
2022-11-15T11:52:10.597Z,100604.88
2022-11-15T11:54:50.282Z,100599.88
2022-11-15T11:57:27.798Z,100603.72
2022-11-15T12:00:01.561Z,100600.78
2022-11-15T12:02:33.865Z,100598.19
2022-11-15T12:05:10.077Z,100596.97
2022-11-15T12:07:42.109Z,100593.09
2022-11-15T12:10:22.079Z,100595.56
2022-11-15T12:12:57.728Z,100599.88
2022-11-15T12:15:29.681Z,100600.44
2022-11-15T12:17:59.152Z,100585.16
2022-11-15T12:20:29.991Z,100587.53
2022-11-15T12:23:03.828Z,100586.97
2022-11-15T12:25:36.834Z,100578.00
2022-11-15T12:28:14.089Z,100581.41
2022-11-15T12:30:58.427Z,100570.66
2022-11-15T12:33:35.204Z,100577.91
2022-11-15T12:36:05.837Z,100576.19
2022-11-15T12:38:57.939Z,100577.16
2022-11-15T12:41:27.891Z,100571.59
2022-11-15T12:43:57.010Z,100576.03
2022-11-15T12:47:02.658Z,100564.63
2022-11-15T12:49:47.709Z,100563.03
2022-11-15T12:52:17.301Z,100565.94
2022-11-15T12:55:07.227Z,100567.66
2022-11-15T12:57:43.894Z,100568.22
2022-11-15T13:00:41.487Z,100559.69
2022-11-15T13:03:30.283Z,100569.06
2022-11-15T13:06:08.503Z,100567.25
2022-11-15T13:08:42.130Z,100566.97
2022-11-15T13:11:28.568Z,100563.16
2022-11-15T13:13:57.930Z,100556.78
2022-11-15T13:16:27.219Z,100552.97
2022-11-15T13:18:56.128Z,100539.59
2022-11-15T13:21:44.011Z,100541.94
2022-11-15T13:24:17.981Z,100539.97
2022-11-15T13:26:46.089Z,100531.56
2022-11-15T13:29:20.751Z,100539.38
2022-11-15T13:31:49.438Z,100532.72
2022-11-15T13:34:51.458Z,100534.59
2022-11-15T13:37:32.167Z,100528.75
2022-11-15T13:40:20.196Z,100528.41
2022-11-15T13:42:48.470Z,100520.84
2022-11-15T13:45:21.290Z,100519.72
2022-11-15T13:47:55.636Z,100514.34
2022-11-15T13:50:27.494Z,100510.13
2022-11-15T13:53:04.517Z,100501.72
2022-11-15T13:55:37.172Z,100502.56
2022-11-15T13:58:14.321Z,100500.19
2022-11-15T14:00:54.437Z,100489.41
2022-11-15T14:03:33.646Z,100490.03
2022-11-15T14:06:19.509Z,100484.88
2022-11-15T14:09:23.480Z,100484.81
2022-11-15T14:11:56.154Z,100482.94
2022-11-15T14:14:43.292Z,100474.72
2022-11-15T14:17:36.015Z,100461.50
2022-11-15T14:20:20.980Z,100458.75
2022-11-15T14:22:56.228Z,100453.38
2022-11-15T14:25:25.575Z,100451.28
2022-11-15T14:28:30.069Z,100446.13
2022-11-15T14:31:01.151Z,100445.69
2022-11-15T14:33:33.812Z,100453.31
2022-11-15T14:36:13.842Z,100447.75
2022-11-15T14:38:49.170Z,100443.97
2022-11-15T14:41:30.912Z,100439.13
2022-11-15T14:44:14.984Z,100449.31
2022-11-15T14:46:48.516Z,100443.53
2022-11-15T14:49:24.242Z,100439.00
2022-11-15T14:52:00.907Z,100436.53
2022-11-15T14:54:43.272Z,100438.41
2022-11-15T14:57:21.622Z,100435.50
2022-11-15T14:59:54.588Z,100445.34
2022-11-15T15:02:29.183Z,100441.94
2022-11-15T15:05:02.584Z,100441.53
2022-11-15T15:07:42.267Z,100440.50
2022-11-15T15:10:38.319Z,100432.88
2022-11-15T15:13:00.147Z,100434.78
2022-11-15T15:15:34.357Z,100439.38
2022-11-15T15:18:02.414Z,100430.69
2022-11-15T15:20:32.073Z,100424.16
2022-11-15T15:23:05.592Z,100420.78
2022-11-15T15:25:35.031Z,100420.97
2022-11-15T15:28:03.493Z,100422.88
2022-11-15T15:30:35.089Z,100412.13
2022-11-15T15:33:03.639Z,100414.00
2022-11-15T15:35:35.695Z,100411.47
2022-11-15T15:38:05.690Z,100405.81
2022-11-15T15:40:35.103Z,100390.56
2022-11-15T15:43:03.660Z,100385.66
2022-11-15T15:45:33.273Z,100382.28
2022-11-15T15:48:01.732Z,100382.69
2022-11-15T15:50:32.183Z,100375.31
2022-11-15T15:53:09.113Z,100373.44
2022-11-15T15:56:16.205Z,100376.34
2022-11-15T15:58:44.736Z,100366.44
2022-11-15T16:01:16.162Z,100365.59
2022-11-15T16:03:44.674Z,100366.66
2022-11-15T16:06:35.761Z,100360.41
2022-11-15T16:09:15.199Z,100355.91
2022-11-15T16:11:45.980Z,100353.78
2022-11-15T16:14:14.960Z,100355.19
2022-11-15T16:16:43.857Z,100348.66
2022-11-15T16:19:13.304Z,100350.09
2022-11-15T16:21:41.437Z,100342.94
2022-11-15T16:24:11.256Z,100335.31
2022-11-15T16:26:40.041Z,100342.47
2022-11-15T16:29:10.150Z,100338.88
2022-11-15T16:31:38.176Z,100337.84
2022-11-15T16:34:07.232Z,100331.94
2022-11-15T16:36:36.802Z,100330.31
2022-11-15T16:39:05.269Z,100325.91
2022-11-15T16:41:35.089Z,100334.28
2022-11-15T16:44:03.091Z,100325.22
2022-11-15T16:46:31.121Z,100326.06
2022-11-15T16:48:59.328Z,100319.13
2022-11-15T16:51:27.431Z,100322.50
2022-11-15T16:53:55.491Z,100319.38
2022-11-15T16:56:27.021Z,100320.22
2022-11-15T16:58:58.562Z,100319.75
2022-11-15T17:01:28.187Z,100317.25
2022-11-15T17:03:56.782Z,100310.72
2022-11-15T17:06:26.898Z,100309.84
2022-11-15T17:08:56.598Z,100305.72
2022-11-15T17:11:24.629Z,100298.75
2022-11-15T17:13:53.283Z,100301.66
2022-11-15T17:16:22.951Z,100298.94
2022-11-15T17:18:53.342Z,100304.59
2022-11-15T17:21:23.163Z,100296.19
2022-11-15T17:23:51.146Z,100293.00
2022-11-15T17:26:39.180Z,100291.41
2022-11-15T17:29:08.893Z,100300.44
2022-11-15T17:31:38.898Z,100297.50
2022-11-15T17:34:08.371Z,100301.31
2022-11-15T17:36:36.987Z,100296.19
2022-11-15T17:39:05.537Z,100298.28
2022-11-15T17:41:33.861Z,100300.44
2022-11-15T17:44:03.790Z,100300.06
2022-11-15T17:46:36.464Z,100283.66
2022-11-15T17:49:06.273Z,100284.38
2022-11-15T17:51:34.598Z,100285.47
2022-11-15T17:54:03.803Z,100277.91
2022-11-15T17:56:33.714Z,100281.50
2022-11-15T17:59:02.303Z,100280.94
2022-11-15T18:01:32.198Z,100268.69
2022-11-15T18:04:02.175Z,100270.56
2022-11-15T18:06:33.909Z,100270.38
2022-11-15T18:09:02.315Z,100272.38
2022-11-15T18:11:32.973Z,100275.19
2022-11-15T18:14:04.468Z,100269.72
2022-11-15T18:16:35.316Z,100266.41
2022-11-15T18:19:08.901Z,100260.75
2022-11-15T18:21:56.691Z,100258.78
2022-11-15T18:24:26.060Z,100259.56
2022-11-15T18:26:54.662Z,100255.41
2022-11-15T18:29:24.584Z,100251.38
2022-11-15T18:31:55.744Z,100242.53
2022-11-15T18:34:24.777Z,100235.38
2022-11-15T18:36:54.773Z,100242.72
2022-11-15T18:39:22.962Z,100230.94
2022-11-15T18:41:51.775Z,100245.66
2022-11-15T18:44:19.989Z,100239.59
2022-11-15T18:46:51.173Z,100236.16
2022-11-15T18:49:20.297Z,100235.69
2022-11-15T18:51:49.559Z,100226.88
2022-11-15T18:54:19.161Z,100224.16
2022-11-15T18:56:47.721Z,100231.25
2022-11-15T18:59:16.800Z,100222.22
2022-11-15T19:01:48.320Z,100221.81
2022-11-15T19:04:18.565Z,100217.66
2022-11-15T19:06:48.735Z,100210.31
2022-11-15T19:09:19.925Z,100200.63
2022-11-15T19:11:51.593Z,100195.16
2022-11-15T19:14:24.347Z,100191.59
2022-11-15T19:16:54.671Z,100189.50
2022-11-15T19:19:25.226Z,100176.44
2022-11-15T19:21:54.119Z,100163.81
2022-11-15T19:24:23.428Z,100172.00
2022-11-15T19:26:51.590Z,100171.38
2022-11-15T19:29:19.613Z,100169.91
2022-11-15T19:31:48.853Z,100188.31
2022-11-15T19:34:17.931Z,100180.59
2022-11-15T19:36:46.492Z,100187.16
2022-11-15T19:39:18.040Z,100183.00
2022-11-15T19:41:47.850Z,100176.91
2022-11-15T19:44:16.593Z,100180.84
2022-11-15T19:46:45.382Z,100176.69
2022-11-15T19:49:14.633Z,100168.31
2022-11-15T19:51:45.601Z,100173.78
2022-11-15T19:54:14.036Z,100172.13
2022-11-15T19:56:42.163Z,100183.28
2022-11-15T19:59:13.545Z,100177.13
2022-11-15T20:01:42.571Z,100177.59
2022-11-15T20:04:10.912Z,100174.88
2022-11-15T20:06:41.295Z,100164.91
2022-11-15T20:09:12.401Z,100173.44
2022-11-15T20:11:40.323Z,100171.56
2022-11-15T20:14:09.738Z,100169.28
2022-11-15T20:16:39.331Z,100170.59
2022-11-15T20:19:08.664Z,100173.72
2022-11-15T20:21:37.051Z,100169.53
2022-11-15T20:24:05.744Z,100165.97
2022-11-15T20:26:35.617Z,100163.88
2022-11-15T20:29:04.023Z,100159.72
2022-11-15T20:31:33.078Z,100160.28
2022-11-15T20:34:02.529Z,100161.31
2022-11-15T20:36:30.468Z,100162.16
2022-11-15T20:38:59.735Z,100159.03
2022-11-15T20:41:28.554Z,100163.25
2022-11-15T20:43:56.723Z,100161.94
2022-11-15T20:46:24.676Z,100161.94
2022-11-15T20:48:52.646Z,100162.72
2022-11-15T20:51:22.227Z,100161.09
2022-11-15T20:53:50.752Z,100155.34
2022-11-15T20:56:21.156Z,100158.06
2022-11-15T20:58:50.805Z,100152.44
2022-11-15T21:01:23.741Z,100157.50
2022-11-15T21:03:53.686Z,100157.09
2022-11-15T21:06:24.460Z,100152.88
2022-11-15T21:09:11.441Z,100148.06
2022-11-15T21:11:57.799Z,100161.59
2022-11-15T21:14:26.251Z,100154.19
2022-11-15T21:16:54.318Z,100156.72
2022-11-15T21:19:28.779Z,100156.91
2022-11-15T21:22:02.576Z,100151.63
2022-11-15T21:24:31.222Z,100157.31
2022-11-15T21:26:59.824Z,100150.34
2022-11-15T21:29:28.604Z,100157.09
2022-11-15T21:31:56.691Z,100156.34
2022-11-15T21:34:24.978Z,100159.72
2022-11-15T21:36:53.107Z,100155.88
2022-11-15T21:39:22.421Z,100151.91
2022-11-15T21:41:50.293Z,100152.75
2022-11-15T21:44:18.392Z,100148.94
2022-11-15T21:46:46.371Z,100142.69
2022-11-15T21:49:14.351Z,100140.34
2022-11-15T21:51:42.312Z,100138.63
2022-11-15T21:54:10.437Z,100131.69
2022-11-15T21:56:39.891Z,100125.56
2022-11-15T21:59:07.840Z,100118.88
2022-11-15T22:01:53.732Z,100104.38
2022-11-15T22:04:24.015Z,100101.66
2022-11-15T22:06:52.354Z,100104.56
2022-11-15T22:09:20.586Z,100105.00
2022-11-15T22:11:50.137Z,100101.84
2022-11-15T22:14:18.468Z,100093.19
2022-11-15T22:16:46.774Z,100096.59
2022-11-15T22:19:15.224Z,100091.75
2022-11-15T22:21:43.232Z,100086.28
2022-11-15T22:24:11.607Z,100089.41
2022-11-15T22:26:39.633Z,100087.25
2022-11-15T22:29:08.938Z,100075.31
2022-11-15T22:31:36.943Z,100076.81
2022-11-15T22:34:05.075Z,100081.81
2022-11-15T22:36:47.008Z,100070.50
2022-11-15T22:39:21.096Z,100075.56
2022-11-15T22:41:49.088Z,100067.56
2022-11-15T22:44:18.394Z,100068.16
2022-11-15T22:46:46.440Z,100057.69
2022-11-15T22:49:14.948Z,100066.38
2022-11-15T22:51:42.906Z,100068.47
2022-11-15T22:54:10.835Z,100065.34
2022-11-15T22:56:38.930Z,100060.53
2022-11-15T22:59:07.199Z,100066.03
2022-11-15T23:01:36.629Z,100062.19
2022-11-15T23:04:04.925Z,100057.34
2022-11-15T23:06:33.144Z,100066.00
2022-11-15T23:09:01.115Z,100060.13
2022-11-15T23:11:46.460Z,100053.00
2022-11-15T23:14:14.844Z,100047.31
2022-11-15T23:16:44.813Z,100049.38
2022-11-15T23:19:13.998Z,100046.88
2022-11-15T23:22:02.175Z,100046.94
2022-11-15T23:24:31.509Z,100042.97
2022-11-15T23:27:01.590Z,100052.00
2022-11-15T23:29:30.841Z,100046.16
2022-11-15T23:32:17.798Z,100054.78
2022-11-15T23:34:47.408Z,100048.03
2022-11-15T23:37:16.611Z,100048.28
2022-11-15T23:39:45.023Z,100038.34
2022-11-15T23:42:19.713Z,100038.16
2022-11-15T23:44:50.007Z,100031.00
2022-11-15T23:47:19.573Z,100029.06
2022-11-15T23:49:47.691Z,100034.53
2022-11-15T23:52:16.879Z,100025.28
2022-11-15T23:54:45.404Z,100033.28
2022-11-15T23:57:13.983Z,100028.88
2022-11-15T23:59:44.186Z,100029.06
